Time;durP1;ratioP1;P1;durP2;ratioP2;P2;SDS_P1;SDS_P2;PMS_P1;PMS_P2;Temp;Humidity;BMP_temperature;BMP_pressure;BME280_temperature;BME280_humidity;BME280_pressure;Samples;Min_cycle;Max_cycle;Signal;HPM_P1;HPM_P2
2022/06/28 00:00:39;;;;;;;6.03;5.53;;;21.00;99.90;;;21.37;69.58;101144.19;4937092;29;20419;-72
2022/06/28 00:03:08;;;;;;;6.80;6.20;;;21.00;99.90;;;21.30;70.25;101144.44;4936634;29;21037;-70
2022/06/28 00:05:38;;;;;;;8.90;8.10;;;21.00;99.90;;;21.24;70.07;101124.34;4936161;29;20523;-70
2022/06/28 00:08:08;;;;;;;7.40;6.43;;;21.00;99.90;;;21.20;70.80;101111.38;4924442;29;20448;-70
2022/06/28 00:10:37;;;;;;;9.17;7.23;;;20.90;99.90;;;21.30;70.71;101107.84;4935371;29;20432;-70
2022/06/28 00:13:06;;;;;;;7.47;6.77;;;21.00;99.90;;;21.19;71.13;101109.72;4930506;29;20441;-71
2022/06/28 00:18:22;;;;;;;9.03;8.33;;;20.90;99.90;;;21.03;73.51;101122.50;4935651;29;20407;-70
2022/06/28 00:20:52;;;;;;;8.77;7.97;;;20.80;99.90;;;20.92;74.80;101129.03;4935536;29;20483;-70
2022/06/28 00:23:21;;;;;;;9.90;8.90;;;20.70;99.90;;;20.83;77.35;101122.38;4934353;29;20471;-70
2022/06/28 00:25:50;;;;;;;9.77;8.80;;;20.60;99.90;;;20.56;76.76;101121.63;4935909;29;20443;-69
2022/06/28 00:28:19;;;;;;;10.40;9.40;;;20.40;99.90;;;20.47;79.45;101125.97;4933845;29;20478;-72
2022/06/28 00:30:48;;;;;;;9.27;8.47;;;20.30;99.90;;;20.43;79.88;101133.06;4931520;29;20423;-69
2022/06/28 00:33:17;;;;;;;10.23;9.30;;;20.20;99.90;;;20.35;80.44;101129.69;4929834;29;20437;-70
2022/06/28 00:35:47;;;;;;;9.27;8.37;;;20.20;99.90;;;20.28;80.84;101126.28;4929675;29;20878;-72
2022/06/28 00:38:17;;;;;;;10.40;9.40;;;20.10;99.90;;;20.26;81.89;101133.16;4930717;29;20423;-71
2022/06/28 00:40:50;;;;;;;9.57;8.60;;;20.10;99.90;;;20.15;81.79;101140.47;4935986;29;20433;-69
2022/06/28 00:43:22;;;;;;;10.03;8.90;;;20.00;99.90;;;20.19;81.72;101138.84;4929931;29;20479;-71
2022/06/28 00:45:52;;;;;;;9.97;9.07;;;20.00;99.90;;;19.98;81.88;101145.25;4934040;29;20434;-69
2022/06/28 00:48:25;;;;;;;9.80;8.80;;;19.90;99.90;;;20.08;83.72;101147.28;4939306;29;20415;-71
2022/06/28 00:50:54;;;;;;;12.00;10.50;;;19.90;99.90;;;19.98;83.05;101152.66;4937541;29;20500;-70
2022/06/28 00:53:25;;;;;;;11.43;10.33;;;19.70;99.90;;;19.95;83.52;101164.97;4937571;29;20466;-72
2022/06/28 00:55:54;;;;;;;10.70;9.70;;;19.70;99.90;;;20.07;83.52;101168.41;5028859;23;20467;-72
2022/06/28 00:58:23;;;;;;;10.57;9.50;;;19.80;99.90;;;19.93;83.06;101168.00;5013392;28;20502;-72
2022/06/28 01:00:52;;;;;;;11.53;10.33;;;19.70;99.90;;;20.09;83.67;101170.91;4994540;28;20457;-72
2022/06/28 01:03:25;;;;;;;11.83;10.63;;;19.80;99.90;;;19.98;83.48;101178.22;5011217;28;20836;-71
2022/06/28 01:05:55;;;;;;;10.57;9.67;;;19.70;99.90;;;19.94;84.06;101175.13;5003993;28;20972;-72
2022/06/28 01:08:29;;;;;;;12.83;11.63;;;19.70;99.90;;;19.82;84.42;101179.09;4992475;28;20438;-72
2022/06/28 01:11:18;;;;;;;12.47;11.03;;;19.60;99.90;;;19.86;85.26;101177.50;4993594;28;20453;-71
2022/06/28 01:13:55;;;;;;;11.80;10.60;;;19.60;99.90;;;19.73;84.59;101167.75;4993788;28;20451;-72
2022/06/28 01:16:25;;;;;;;11.20;10.13;;;19.60;99.90;;;19.60;84.86;101157.16;5001146;28;20505;-71
2022/06/28 01:19:05;;;;;;;12.53;11.33;;;19.40;99.90;;;19.51;84.57;101154.00;4992723;28;20460;-72
2022/06/28 01:21:39;;;;;;;12.47;11.20;;;19.30;99.90;;;19.57;84.73;101143.94;4991570;28;20450;-72
2022/06/28 01:24:10;;;;;;;12.17;11.00;;;19.30;99.90;;;19.64;84.54;101161.06;5009742;28;20435;-73
2022/06/28 01:26:46;;;;;;;12.53;11.33;;;19.40;99.90;;;19.59;84.72;101160.16;5011842;28;20433;-72
2022/06/28 01:29:18;;;;;;;11.40;10.20;;;19.30;99.90;;;19.52;85.03;101179.53;5009264;28;20457;-73
2022/06/28 01:31:58;;;;;;;9.73;8.73;;;19.30;99.90;;;19.52;84.49;101182.28;4988840;28;20798;-73
2022/06/28 01:34:29;;;;;;;10.97;9.83;;;19.30;99.90;;;19.58;84.81;101202.41;5010035;28;20479;-72
2022/06/28 01:36:58;;;;;;;12.93;11.00;;;19.40;99.90;;;19.62;84.79;101207.13;4993863;28;20435;-71
2022/06/28 01:39:31;;;;;;;11.33;9.97;;;19.40;99.90;;;19.62;83.89;101214.53;5010309;28;21106;-73
2022/06/28 01:42:00;;;;;;;10.93;9.83;;;19.40;99.90;;;19.68;84.38;101214.34;5003721;28;20450;-71
2022/06/28 01:44:32;;;;;;;11.23;10.03;;;19.40;99.90;;;19.69;84.05;101210.53;5011794;28;20504;-72
2022/06/28 01:47:10;;;;;;;13.80;12.20;;;19.50;99.90;;;19.64;84.31;101206.88;5020083;28;20443;-71
2022/06/28 01:49:59;;;;;;;13.40;11.83;;;19.40;99.90;;;19.65;84.66;101212.13;5011197;28;20437;-73
2022/06/28 01:52:33;;;;;;;14.57;10.77;;;19.40;99.90;;;19.67;84.77;101220.09;4996389;28;20488;-72
2022/06/28 01:55:15;;;;;;;15.33;10.57;;;19.40;99.90;;;19.62;85.02;101225.50;4994992;28;20484;-72
2022/06/28 01:57:49;;;;;;;12.83;10.70;;;19.40;99.90;;;19.68;85.18;101216.28;5010636;28;20426;-71
2022/06/28 02:00:19;;;;;;;14.60;12.40;;;19.40;99.90;;;19.64;85.49;101212.38;5005465;28;20445;-72
2022/06/28 02:02:52;;;;;;;12.13;11.00;;;19.40;99.90;;;19.55;86.00;101200.19;5007365;28;20482;-72
2022/06/28 02:05:27;;;;;;;11.27;10.07;;;19.30;99.90;;;19.63;85.44;101200.56;5008742;28;20445;-71
2022/06/28 02:07:57;;;;;;;12.03;10.83;;;19.30;99.90;;;19.45;84.56;101204.44;4991069;28;21091;-72
2022/06/28 02:10:31;;;;;;;12.20;10.87;;;19.30;99.90;;;19.52;85.39;101220.72;5007971;28;20450;-72
2022/06/28 02:13:02;;;;;;;13.17;11.60;;;19.30;99.90;;;19.57;85.08;101233.69;5008295;28;20462;-72
2022/06/28 02:15:31;;;;;;;12.30;11.00;;;19.30;99.90;;;19.64;85.02;101239.84;5010080;28;20472;-72
2022/06/28 02:18:01;;;;;;;12.50;11.20;;;19.40;99.90;;;19.52;85.39;101249.00;4979289;28;20459;-73
2022/06/28 02:20:30;;;;;;;16.20;11.93;;;19.30;99.90;;;19.61;84.27;101246.66;4993253;28;20456;-73
2022/06/28 02:22:59;;;;;;;14.30;10.80;;;19.40;99.90;;;19.52;84.95;101248.16;5000747;28;20973;-72
2022/06/28 02:25:30;;;;;;;12.27;11.07;;;19.30;99.90;;;19.39;84.88;101254.81;5008904;28;20504;-72
2022/06/28 02:27:59;;;;;;;13.07;11.67;;;19.20;99.90;;;19.36;85.19;101260.81;5007225;28;20945;-74
2022/06/28 02:30:29;;;;;;;12.47;11.23;;;19.20;99.90;;;19.39;84.98;101268.53;5010491;28;20479;-72
2022/06/28 02:32:58;;;;;;;12.30;11.10;;;19.10;99.90;;;19.26;85.19;101281.78;4991672;28;20456;-72
2022/06/28 02:41:01;;;;;;;13.90;9.30;;;18.90;99.90;;;19.21;85.41;101296.25;4992546;28;20423;-70
2022/06/28 02:43:30;;;;;;;11.10;9.97;;;18.90;99.90;;;19.45;84.91;101305.16;5004668;28;20432;-71
2022/06/28 02:46:00;;;;;;;14.50;12.23;;;19.10;99.90;;;19.43;83.60;101310.88;5008961;28;20534;-72
2022/06/28 02:48:34;;;;;;;12.07;10.00;;;19.10;99.90;;;19.38;83.43;101308.03;4986162;28;20489;-72
2022/06/28 02:51:03;;;;;;;10.60;9.20;;;19.10;99.90;;;19.52;83.98;101319.53;4982329;28;20445;-71
2022/06/28 02:53:32;;;;;;;11.80;10.60;;;19.20;99.90;;;19.70;82.95;101322.03;4984079;28;20484;-72
2022/06/28 02:56:02;;;;;;;11.50;10.30;;;19.40;99.90;;;19.45;83.67;101322.47;5010045;28;20469;-72
2022/06/28 02:58:32;;;;;;;9.73;8.77;;;19.30;99.90;;;19.41;82.55;101329.47;4992745;28;20482;-72
2022/06/28 03:01:01;;;;;;;11.63;9.90;;;19.20;99.90;;;19.36;83.37;101343.16;4992575;28;20463;-73
2022/06/28 03:03:31;;;;;;;8.93;8.03;;;19.10;99.90;;;19.34;83.83;101341.72;4992788;28;20862;-73
2022/06/28 03:05:59;;;;;;;11.30;9.70;;;19.10;99.90;;;19.36;83.24;101347.81;5003645;28;20529;-73
2022/06/28 03:08:29;;;;;;;10.37;9.27;;;19.10;99.90;;;19.59;82.76;101352.31;4992719;28;20441;-73
2022/06/28 03:10:57;;;;;;;8.60;7.70;;;19.30;99.90;;;19.60;81.90;101370.47;5006032;28;20457;-70
2022/06/28 03:13:28;;;;;;;7.90;7.10;;;19.30;99.90;;;19.49;80.84;101367.53;5004476;28;20488;-73
2022/06/28 03:15:57;;;;;;;9.13;8.10;;;19.30;99.90;;;19.58;81.21;101381.69;4985182;28;20504;-72
2022/06/28 03:18:26;;;;;;;10.20;7.93;;;19.30;99.90;;;19.50;80.08;101382.94;5010368;28;20462;-72
2022/06/28 03:20:55;;;;;;;9.03;7.90;;;19.30;99.90;;;19.51;80.31;101395.56;5009901;28;20536;-72
2022/06/28 03:23:24;;;;;;;7.63;6.83;;;19.30;99.90;;;19.37;80.97;101410.66;4993782;28;20449;-73
2022/06/28 03:25:52;;;;;;;8.77;7.70;;;19.20;99.90;;;19.28;81.56;101414.06;5013225;28;20488;-72
2022/06/28 03:28:21;;;;;;;8.53;6.53;;;19.10;99.90;;;19.26;81.35;101410.75;4998852;28;20836;-73
2022/06/28 03:30:59;;;;;;;7.00;6.30;;;19.00;99.90;;;19.15;80.73;101417.13;4992508;28;20840;-73
2022/06/28 03:33:28;;;;;;;8.10;7.30;;;19.00;99.90;;;19.06;82.28;101419.44;4998042;28;20451;-73
2022/06/28 03:35:57;;;;;;;9.20;8.30;;;18.90;99.90;;;19.20;81.50;101420.78;5000432;28;20481;-72
2022/06/28 03:38:32;;;;;;;8.03;7.30;;;19.00;99.90;;;19.36;82.90;101425.47;5000378;28;20962;-73
2022/06/28 03:41:22;;;;;;;9.60;7.77;;;19.10;99.90;;;19.35;83.02;101422.97;5014334;28;20556;-72
2022/06/28 03:43:56;;;;;;;9.03;8.13;;;19.10;99.90;;;19.56;81.62;101429.69;4998684;28;20435;-72
2022/06/28 03:46:27;;;;;;;8.77;7.93;;;19.20;99.90;;;19.50;81.75;101426.88;5017216;28;21149;-72
2022/06/28 03:49:14;;;;;;;11.53;8.73;;;19.20;99.90;;;19.62;82.99;101429.50;5016761;28;20444;-72
2022/06/28 03:51:51;;;;;;;7.47;6.33;;;19.30;99.90;;;19.56;81.47;101433.25;4999904;28;20461;-73
2022/06/28 03:54:29;;;;;;;7.97;6.30;;;19.30;99.90;;;19.41;79.30;101435.72;5018248;28;20480;-72
2022/06/28 03:57:18;;;;;;;7.60;6.40;;;19.20;99.90;;;19.62;81.20;101434.16;5007912;28;20556;-70
2022/06/28 03:59:47;;;;;;;7.93;7.20;;;19.30;99.90;;;19.68;81.32;101436.75;4996296;28;20424;-72
2022/06/28 04:02:17;;;;;;;7.23;6.00;;;19.30;99.90;;;19.69;81.04;101418.38;5010394;28;20446;-73
2022/06/28 04:04:46;;;;;;;7.13;6.03;;;19.30;99.90;;;19.64;80.96;101404.56;5004564;28;20445;-74
2022/06/28 04:07:15;;;;;;;6.77;5.47;;;19.30;99.90;;;19.53;80.20;101406.31;5011328;28;20476;-74
2022/06/28 04:09:44;;;;;;;7.10;6.20;;;19.30;99.90;;;19.42;80.19;101408.00;5011668;28;20573;-73
2022/06/28 04:12:13;;;;;;;6.63;5.93;;;19.20;99.90;;;19.34;80.98;101404.84;4992896;28;20545;-73
2022/06/28 04:14:42;;;;;;;5.77;4.80;;;19.10;99.90;;;19.21;80.10;101400.50;4995066;28;20477;-73
2022/06/28 04:17:11;;;;;;;8.13;6.13;;;19.00;99.90;;;19.32;81.46;101405.06;5011012;28;20436;-74
2022/06/28 04:20:09;;;;;;;6.10;4.80;;;19.10;99.90;;;19.12;80.23;101393.75;5012855;28;20438;-74
2022/06/28 04:22:51;;;;;;;6.00;5.30;;;18.90;99.90;;;19.06;80.61;101392.84;4994642;28;20456;-74
2022/06/28 04:25:20;;;;;;;5.93;5.33;;;18.90;99.90;;;18.95;80.50;101390.13;4994355;28;20477;-73
2022/06/28 04:27:51;;;;;;;6.63;5.60;;;18.70;99.90;;;18.98;81.25;101389.63;4994510;28;20440;-74
2022/06/28 04:30:21;;;;;;;4.77;4.27;;;18.70;99.90;;;18.95;81.79;101390.13;4994562;28;20448;-74
2022/06/28 04:32:54;;;;;;;5.67;4.27;;;18.70;99.90;;;18.91;82.03;101387.06;5011946;28;20471;-74
2022/06/28 04:35:28;;;;;;;8.23;5.80;;;18.70;99.90;;;18.82;81.97;101380.31;4994489;28;20523;-74
2022/06/28 04:37:57;;;;;;;6.90;5.10;;;18.60;99.90;;;18.74;82.78;101371.63;4993159;28;20564;-73
2022/06/28 04:40:52;;;;;;;6.20;4.70;;;18.50;99.90;;;18.81;83.35;101375.06;5007272;28;20508;-74
2022/06/28 04:43:35;;;;;;;5.17;4.67;;;18.60;99.90;;;18.77;83.36;101371.97;4986792;28;20454;-73
2022/06/28 04:46:04;;;;;;;6.40;4.57;;;18.50;99.90;;;18.78;84.31;101373.66;4991875;28;20859;-74
2022/06/28 04:48:35;;;;;;;6.33;5.67;;;18.50;99.90;;;18.62;83.84;101377.16;4992998;28;20798;-74
2022/06/28 04:51:11;;;;;;;6.13;5.40;;;18.40;99.90;;;18.69;83.25;101371.56;5011987;28;20433;-73
2022/06/28 04:53:47;;;;;;;6.30;5.70;;;18.50;99.90;;;18.63;82.71;101376.09;5012574;28;20502;-73
2022/06/28 04:56:20;;;;;;;7.87;6.00;;;18.50;99.90;;;18.56;83.80;101378.13;4995168;28;20455;-72
2022/06/28 04:58:50;;;;;;;6.57;5.90;;;18.40;99.90;;;18.24;84.15;101372.22;5008603;28;20798;-73
2022/06/28 05:01:19;;;;;;;8.47;5.00;;;18.20;99.90;;;18.40;84.64;101365.97;4990061;28;20492;-73
2022/06/28 05:03:50;;;;;;;5.73;5.17;;;18.20;99.90;;;18.47;84.63;101372.16;4988683;28;20483;-74
2022/06/28 05:06:56;;;;;;;6.57;5.50;;;18.20;99.90;;;18.36;84.84;101369.44;4974624;28;20451;-73
2022/06/28 05:09:25;;;;;;;7.30;6.10;;;18.20;99.90;;;18.16;85.26;101369.84;5004623;28;20797;-72
2022/06/28 05:12:06;;;;;;;7.47;5.33;;;18.00;99.90;;;18.20;85.14;101369.13;4987461;28;20453;-73
2022/06/28 05:14:37;;;;;;;7.90;5.87;;;18.00;99.90;;;18.35;85.06;101371.34;4989165;28;20450;-73
2022/06/28 05:17:06;;;;;;;7.13;6.13;;;18.10;99.90;;;18.27;84.63;101369.00;4993528;28;20465;-73
2022/06/28 05:19:35;;;;;;;6.17;5.57;;;18.10;99.90;;;18.11;85.07;101380.69;4989516;28;20807;-72
2022/06/28 05:22:08;;;;;;;6.63;5.50;;;18.00;99.90;;;18.25;85.39;101380.19;4993027;28;20420;-74
2022/06/28 05:24:51;;;;;;;7.23;6.50;;;18.00;99.90;;;18.12;84.84;101380.44;4992198;28;20539;-74
2022/06/28 05:27:20;;;;;;;9.03;6.33;;;18.00;99.90;;;18.02;84.83;101384.88;4993499;28;20502;-73
2022/06/28 05:29:49;;;;;;;7.40;6.70;;;17.80;99.90;;;18.04;85.32;101380.84;5008271;28;20453;-74
2022/06/28 05:32:17;;;;;;;6.83;5.53;;;17.90;99.90;;;18.00;82.42;101387.03;4989309;28;20469;-73
2022/06/28 05:34:46;;;;;;;5.33;4.70;;;17.80;99.90;;;18.00;80.92;101382.38;4989924;28;20829;-73
2022/06/28 05:37:16;;;;;;;7.80;4.73;;;17.80;99.90;;;18.04;80.21;101380.84;5009585;28;20469;-74
2022/06/28 05:39:47;;;;;;;4.13;3.73;;;17.70;99.90;;;18.00;80.39;101381.56;4991609;28;20855;-73
2022/06/28 05:42:17;;;;;;;5.40;4.37;;;17.80;99.90;;;17.93;79.67;101375.34;4991772;28;20828;-73
2022/06/28 05:44:46;;;;;;;4.57;3.50;;;17.70;99.90;;;17.86;79.46;101380.13;4991433;28;20560;-73
2022/06/28 05:47:15;;;;;;;6.53;3.90;;;17.60;99.90;;;17.66;79.50;101381.31;4990743;28;20445;-73
2022/06/28 05:49:43;;;;;;;3.50;3.20;;;17.50;99.90;;;17.86;80.96;101377.41;5001708;28;20449;-74
2022/06/28 05:52:13;;;;;;;4.80;4.30;;;17.60;99.90;;;18.03;79.59;101394.75;4993908;28;20583;-73
2022/06/28 05:54:43;;;;;;;5.17;3.30;;;17.70;99.90;;;17.97;78.49;101384.75;5017980;28;20504;-73
2022/06/28 05:57:12;;;;;;;3.50;3.20;;;17.70;99.90;;;17.93;77.95;101384.41;4992937;28;20469;-72
2022/06/28 05:59:41;;;;;;;3.90;3.33;;;17.70;99.90;;;18.03;78.01;101386.53;4993141;28;20632;-71
2022/06/28 06:02:10;;;;;;;5.00;4.50;;;17.80;99.90;;;17.92;77.98;101396.41;4990357;28;20718;-73
2022/06/28 06:04:38;;;;;;;4.20;3.00;;;17.70;99.90;;;17.88;77.78;101397.13;4999413;28;20797;-72
2022/06/28 06:07:08;;;;;;;10.60;3.83;;;17.70;99.90;;;17.99;77.46;101396.31;5003742;28;20477;-73
2022/06/28 06:09:41;;;;;;;4.50;3.50;;;17.80;99.90;;;18.07;76.48;101398.69;4993306;28;20454;-72
2022/06/28 06:12:11;;;;;;;3.63;3.07;;;17.80;99.90;;;18.35;75.42;101401.50;5005616;28;20996;-73
2022/06/28 06:14:41;;;;;;;4.10;3.43;;;18.00;99.90;;;18.38;74.82;101387.31;5009890;28;20559;-73
2022/06/28 06:17:10;;;;;;;4.30;3.87;;;18.10;99.90;;;18.51;74.62;101389.78;4986119;28;20565;-73
2022/06/28 06:19:39;;;;;;;3.50;3.10;;;18.20;99.90;;;18.40;74.32;101392.53;5008634;28;20539;-71
2022/06/28 06:22:08;;;;;;;3.23;2.90;;;18.20;99.90;;;18.21;74.90;101389.13;4980068;28;20453;-71
2022/06/28 06:24:37;;;;;;;4.83;4.37;;;18.00;99.90;;;18.61;74.54;101395.50;5010525;28;20875;-71
2022/06/28 06:27:27;;;;;;;4.03;3.60;;;18.20;99.90;;;18.66;73.62;101390.13;4996683;28;20547;-72
2022/06/28 06:29:57;;;;;;;4.43;3.23;;;18.30;99.90;;;18.65;73.35;101396.69;4984509;28;20451;-72
2022/06/28 06:32:38;;;;;;;3.70;3.40;;;18.40;99.90;;;18.80;72.85;101389.84;5010565;28;20556;-72
2022/06/28 06:35:22;;;;;;;5.20;3.30;;;18.50;99.90;;;19.25;72.18;101396.19;5011065;28;20469;-72
2022/06/28 06:37:52;;;;;;;3.50;2.90;;;18.80;99.90;;;19.38;70.80;101403.25;4992868;28;20472;-73
2022/06/28 06:40:22;;;;;;;3.47;2.80;;;19.00;99.90;;;18.87;71.09;101415.22;4990593;28;20536;-70
2022/06/28 06:42:52;;;;;;;3.73;3.17;;;18.70;99.90;;;18.72;71.53;101406.69;4992424;28;20445;-72
2022/06/28 06:45:23;;;;;;;4.23;3.30;;;18.60;99.90;;;18.91;70.56;101405.41;4992985;28;20483;-72
2022/06/28 06:47:52;;;;;;;3.23;2.80;;;18.60;99.90;;;19.11;70.47;101411.31;5011501;28;20904;-72
2022/06/28 06:50:22;;;;;;;5.30;4.00;;;18.80;99.90;;;19.20;68.69;101414.47;4992695;28;20556;-71
2022/06/28 06:52:51;;;;;;;3.93;2.90;;;18.90;99.90;;;19.23;69.77;101420.28;5001182;28;20444;-72
2022/06/28 06:55:20;;;;;;;3.80;3.40;;;18.90;99.90;;;19.52;68.93;101435.66;4993749;23;20541;-72
2022/06/28 06:57:48;;;;;;;3.80;3.20;;;19.10;99.90;;;19.45;68.50;101451.47;4953483;28;20475;-71
2022/06/28 07:00:20;;;;;;;3.17;2.87;;;19.20;99.90;;;19.16;69.07;101468.16;4962304;28;20449;-73
2022/06/28 07:02:49;;;;;;;4.10;3.37;;;19.00;99.90;;;19.42;68.74;101457.41;4956257;28;20443;-73
2022/06/28 07:05:18;;;;;;;5.93;3.70;;;19.10;99.90;;;19.64;67.94;101453.97;4948045;28;20494;-73
2022/06/28 07:07:47;;;;;;;2.60;2.30;;;19.30;99.90;;;19.66;67.70;101468.28;4936756;29;20451;-72
2022/06/28 07:10:20;;;;;;;3.37;3.07;;;19.40;99.90;;;19.71;67.56;101465.63;4946549;29;20526;-72
2022/06/28 07:12:49;;;;;;;3.97;2.50;;;19.30;99.90;;;19.88;66.96;101467.31;4942714;29;20522;-71
2022/06/28 07:15:19;;;;;;;2.70;2.30;;;19.50;99.90;;;19.75;67.19;101472.31;4943361;29;20482;-71
2022/06/28 07:17:48;;;;;;;3.07;2.60;;;19.50;99.90;;;19.35;67.61;101470.47;4949854;29;20852;-73
2022/06/28 07:20:19;;;;;;;3.40;2.70;;;19.20;99.90;;;19.11;68.82;101485.38;4944734;29;20446;-73
2022/06/28 07:22:48;;;;;;;3.90;3.10;;;19.00;99.90;;;19.19;68.38;101481.38;4940912;29;20416;-72
2022/06/28 07:25:20;;;;;;;3.57;3.23;;;19.00;99.90;;;19.33;68.20;101491.00;4949205;28;20457;-73
2022/06/28 07:27:50;;;;;;;2.80;2.43;;;19.00;99.90;;;19.48;67.98;101489.41;4946540;29;20475;-73
2022/06/28 07:30:20;;;;;;;3.13;2.57;;;19.20;99.90;;;19.83;67.29;101497.44;4946244;29;20509;-72
2022/06/28 07:32:49;;;;;;;3.53;2.53;;;19.40;99.90;;;20.30;65.45;101494.31;4950608;29;20460;-72
2022/06/28 07:35:18;;;;;;;3.17;2.30;;;19.70;99.90;;;20.41;65.01;101503.59;4942647;29;20933;-71
2022/06/28 07:37:47;;;;;;;3.10;2.80;;;20.00;99.90;;;20.94;64.56;101503.78;4945377;29;20963;-72
2022/06/28 07:40:22;;;;;;;2.70;2.00;;;20.30;99.90;;;20.60;63.54;101502.22;4942549;29;21154;-72
2022/06/28 07:43:13;;;;;;;6.80;3.90;;;20.40;99.90;;;20.66;62.84;101513.03;4938382;29;20496;-72
2022/06/28 07:45:48;;;;;;;2.17;1.97;;;20.40;99.90;;;20.36;63.97;101516.19;4941647;29;20454;-72
2022/06/28 07:48:20;;;;;;;2.30;2.10;;;20.20;99.90;;;20.89;62.93;101511.97;4935994;29;20489;-73
2022/06/28 07:53:37;;;;;;;3.20;2.47;;;20.80;99.40;;;21.87;60.51;101519.13;4951889;28;20441;-72
2022/06/28 07:56:18;;;;;;;2.20;2.00;;;21.20;98.30;;;21.38;59.76;101521.13;4958046;28;20493;-72
2022/06/28 07:58:49;;;;;;;2.63;2.10;;;21.20;90.70;;;21.17;60.37;101525.56;4938860;28;21098;-73
2022/06/28 08:01:24;;;;;;;2.33;2.13;;;21.00;92.30;;;20.86;61.01;101533.66;4938967;28;20451;-72
2022/06/28 08:03:55;;;;;;;2.83;2.33;;;20.80;92.40;;;20.90;61.72;101545.81;4946593;28;20454;-71
2022/06/28 08:06:24;;;;;;;2.73;1.93;;;20.80;95.80;;;20.98;61.09;101550.88;4942218;28;20495;-70
2022/06/28 08:08:59;;;;;;;3.30;2.03;;;20.80;94.90;;;21.33;60.68;101545.84;4938414;28;21034;-72
2022/06/28 08:11:29;;;;;;;4.33;2.00;;;20.90;94.90;;;21.33;60.38;101553.25;4940796;28;20462;-73
2022/06/28 08:14:00;;;;;;;1.90;1.50;;;21.00;93.80;;;21.18;61.23;101549.25;4957909;28;20445;-74
2022/06/28 08:16:31;;;;;;;2.57;1.63;;;20.90;95.00;;;21.38;60.09;101554.16;4944286;28;20442;-72
2022/06/28 08:19:00;;;;;;;2.00;1.40;;;21.00;93.80;;;21.46;59.64;101550.94;4956594;28;20671;-74
2022/06/28 08:21:34;;;;;;;2.13;1.90;;;21.20;91.00;;;21.01;60.90;101559.44;4942845;28;20457;-74
2022/06/28 08:24:03;;;;;;;3.10;1.73;;;20.90;91.40;;;20.96;60.37;101562.09;4957516;28;20487;-73
2022/06/28 08:26:32;;;;;;;1.93;1.73;;;20.80;91.40;;;21.13;60.15;101562.06;4938945;28;20455;-72
2022/06/28 08:29:00;;;;;;;2.40;1.93;;;20.90;91.80;;;21.35;58.54;101564.84;4960829;28;20417;-73
2022/06/28 08:31:31;;;;;;;2.63;2.00;;;21.00;84.70;;;21.73;58.11;101572.16;4958067;28;20962;-73
2022/06/28 08:34:00;;;;;;;6.67;2.10;;;21.40;79.70;;;22.07;57.03;101568.13;4958201;28;20413;-72
2022/06/28 08:36:28;;;;;;;2.60;1.77;;;21.60;72.00;;;22.08;57.30;101570.59;4942019;28;20456;-73
2022/06/28 08:38:57;;;;;;;1.57;1.37;;;21.70;69.60;;;22.24;56.34;101570.72;4956455;28;20472;-73
2022/06/28 08:41:31;;;;;;;2.10;1.60;;;21.90;65.40;;;22.15;55.35;101572.31;4961608;28;20442;-73
2022/06/28 08:44:00;;;;;;;3.00;1.27;;;21.90;54.40;;;22.54;54.77;101565.44;4954798;28;20461;-73
2022/06/28 08:46:32;;;;;;;2.00;1.47;;;22.00;52.60;;;22.41;54.89;101574.19;4942868;29;20443;-73
2022/06/28 08:49:10;;;;;;;3.10;2.80;;;22.10;49.80;;;22.37;54.47;101573.03;4954526;28;20448;-73
2022/06/28 08:51:40;;;;;;;4.13;1.87;;;22.30;42.80;;;22.49;54.54;101573.69;4955436;28;20535;-73
2022/06/28 08:54:10;;;;;;;3.33;1.60;;;22.20;44.50;;;22.84;54.11;101570.34;4952767;28;20482;-73
2022/06/28 08:56:41;;;;;;;2.03;1.77;;;22.40;45.20;;;22.78;54.25;101577.78;4951003;28;20536;-73
2022/06/28 08:59:10;;;;;;;2.53;1.63;;;22.40;42.60;;;23.44;53.28;101589.13;4951009;28;20461;-73
2022/06/28 09:01:41;;;;;;;1.80;1.50;;;22.90;43.00;;;24.27;50.60;101592.63;4951241;28;20437;-74
2022/06/28 09:04:12;;;;;;;2.50;1.50;;;23.40;32.50;;;24.47;49.75;101589.88;4957036;28;20475;-73
2022/06/28 09:06:41;;;;;;;1.37;1.07;;;23.60;26.40;;;24.39;49.27;101595.97;4962102;28;20803;-72
2022/06/28 09:09:12;;;;;;;2.33;1.53;;;23.90;21.90;;;24.33;49.66;101597.06;4963651;28;20468;-72
2022/06/28 09:11:44;;;;;;;1.70;1.20;;;23.80;22.20;;;23.79;50.61;101599.47;4960281;28;20931;-73
2022/06/28 09:14:24;;;;;;;2.30;1.27;;;23.60;21.10;;;23.92;50.60;101603.63;4951560;28;20426;-73
2022/06/28 09:16:56;;;;;;;1.73;1.27;;;23.50;22.60;;;23.54;51.07;101603.00;4954596;28;20430;-73
2022/06/28 09:19:38;;;;;;;2.60;1.77;;;23.30;21.50;;;23.24;51.62;101611.13;4955586;28;20453;-72
2022/06/28 09:22:07;;;;;;;2.13;1.53;;;23.10;22.60;;;23.48;52.19;101593.03;4956360;28;20477;-74
2022/06/28 09:24:36;;;;;;;1.73;1.53;;;23.10;25.40;;;23.30;51.92;101604.53;4952965;28;20498;-74
2022/06/28 09:27:08;;;;;;;1.93;1.73;;;23.10;23.40;;;23.75;50.57;101590.06;4956435;28;20468;-73
2022/06/28 09:29:47;;;;;;;2.00;1.73;;;23.20;22.90;;;24.24;49.97;101601.50;4952552;28;20501;-76
2022/06/28 09:32:27;;;;;;;1.73;1.30;;;23.40;22.10;;;24.27;49.20;101598.16;4955068;28;20471;-73
2022/06/28 09:34:58;;;;;;;1.60;1.00;;;23.80;18.30;;;24.58;49.01;101594.28;4961884;28;20530;-73
2022/06/28 09:37:50;;;;;;;3.60;1.27;;;24.10;18.20;;;24.13;49.06;101599.78;4956468;28;20429;-75
2022/06/28 09:40:22;;;;;;;1.50;1.03;;;24.00;16.50;;;24.25;49.01;101600.41;4947905;28;20542;-75
2022/06/28 09:43:08;;;;;;;1.93;1.20;;;24.00;16.40;;;24.77;48.44;101596.47;4954335;28;20542;-73
2022/06/28 09:45:38;;;;;;;5.10;1.30;;;24.30;16.10;;;24.41;48.54;101593.75;4949319;28;20534;-72
2022/06/28 09:48:15;;;;;;;1.60;1.20;;;24.30;13.80;;;24.33;48.20;101588.78;4956405;28;20447;-75
2022/06/28 09:50:45;;;;;;;1.80;1.33;;;24.00;13.50;;;24.59;47.79;101590.41;4957161;28;20499;-73
2022/06/28 09:53:16;;;;;;;1.97;1.43;;;23.90;14.10;;;24.56;47.86;101601.19;4953472;28;20469;-73
2022/06/28 09:55:45;;;;;;;2.93;2.13;;;24.10;12.90;;;24.64;48.31;101593.16;4952850;28;20494;-74
2022/06/28 09:58:15;;;;;;;2.50;2.30;;;24.10;14.10;;;24.90;47.87;101585.66;4953907;28;20448;-75
2022/06/28 10:00:44;;;;;;;3.77;1.90;;;24.30;14.30;;;24.99;47.81;101597.81;4950199;28;20533;-74
2022/06/28 10:03:15;;;;;;;4.33;1.80;;;24.40;14.20;;;25.12;47.60;101590.88;4954578;28;20426;-72
2022/06/28 10:05:44;;;;;;;2.10;1.20;;;24.60;12.90;;;24.30;47.75;101592.09;4954953;28;20438;-74
2022/06/28 10:08:13;;;;;;;2.00;1.60;;;24.20;10.80;;;24.66;47.53;101588.19;4957802;28;20531;-73
2022/06/28 10:10:45;;;;;;;5.63;2.20;;;24.30;10.90;;;24.75;47.30;101577.38;4951640;28;20951;-73
2022/06/28 10:16:29;;;;;;;1.87;1.40;;;24.60;10.10;;;25.35;46.23;101581.91;4956396;28;20539;-77
2022/06/28 10:19:03;;;;;;;2.43;1.23;;;24.90;9.40;;;24.79;46.38;101572.09;4949671;28;20546;-74
2022/06/28 10:21:46;;;;;;;4.70;1.63;;;24.60;7.90;;;23.91;48.89;101577.94;4953654;28;20516;-73
2022/06/28 10:24:15;;;;;;;1.73;1.50;;;24.00;9.60;;;23.54;49.28;101580.88;4951976;28;20447;-75
2022/06/28 10:26:45;;;;;;;1.60;1.20;;;23.60;11.40;;;23.51;49.11;101567.63;4957532;28;20689;-74
2022/06/28 10:29:16;;;;;;;1.60;1.13;;;23.40;11.60;;;23.80;48.84;101573.50;4955862;28;20473;-75
2022/06/28 10:31:45;;;;;;;2.60;1.50;;;23.40;11.80;;;24.41;47.66;101571.59;4961680;28;20439;-72
2022/06/28 10:34:23;;;;;;;1.60;1.13;;;23.90;11.30;;;24.80;46.63;101579.28;4953751;28;20440;-73
2022/06/28 10:36:55;;;;;;;1.67;1.47;;;24.30;9.80;;;24.38;46.69;101572.19;4958083;28;20489;-74
2022/06/28 10:39:29;;;;;;;2.23;1.33;;;24.10;8.00;;;24.50;46.05;101572.69;4961729;28;20492;-73
2022/06/28 10:42:12;;;;;;;2.30;1.40;;;24.10;7.50;;;24.46;46.32;101579.91;4954931;28;20467;-75
2022/06/28 10:44:48;;;;;;;1.70;1.23;;;24.20;8.10;;;24.33;45.84;101574.09;4952422;28;20903;-73